Time;durP1;ratioP1;P1;durP2;ratioP2;P2;SDS_P1;SDS_P2;PMS_P1;PMS_P2;Temp;Humidity;BMP_temperature;BMP_pressure;BME280_temperature;BME280_humidity;BME280_pressure;Samples;Min_cycle;Max_cycle;Signal;HPM_P1;HPM_P2
2022/06/02 00:00:25;;;;;;;13.07;11.52;;;8.40;99.90;;;;;;5042712;28;20046;-75
2022/06/02 00:03:10;;;;;;;13.57;12.27;;;8.40;99.90;;;;;;5045871;28;20468;-76
2022/06/02 00:06:23;;;;;;;13.23;12.02;;;8.40;99.90;;;;;;5047047;28;20045;-75
2022/06/02 00:09:11;;;;;;;14.45;12.95;;;8.40;99.90;;;;;;4943428;29;20052;-75
2022/06/02 00:11:57;;;;;;;14.23;12.77;;;8.30;99.90;;;;;;5042923;28;20104;-76
2022/06/02 00:14:30;;;;;;;13.18;11.88;;;8.30;99.90;;;;;;5051120;28;20039;-75
2022/06/02 00:17:28;;;;;;;13.77;12.50;;;8.30;99.90;;;;;;5046538;28;20128;-75
2022/06/02 00:20:04;;;;;;;13.55;12.35;;;8.30;99.90;;;;;;5045025;28;20052;-75
2022/06/02 00:23:11;;;;;;;13.88;12.48;;;8.30;99.90;;;;;;5045393;28;20501;-75
2022/06/02 00:25:54;;;;;;;14.15;12.85;;;8.30;99.90;;;;;;5044925;28;20064;-75
2022/06/02 00:28:38;;;;;;;14.55;13.15;;;8.20;99.90;;;;;;5052642;28;20048;-76
2022/06/02 00:31:18;;;;;;;14.48;12.98;;;8.20;99.90;;;;;;5054468;28;20105;-75
2022/06/02 00:34:01;;;;;;;16.10;14.45;;;8.20;99.90;;;;;;5028495;28;20140;-75
2022/06/02 00:36:31;;;;;;;17.15;15.38;;;8.20;99.90;;;;;;5044935;28;20037;-75
2022/06/02 00:38:59;;;;;;;15.10;13.60;;;8.20;99.90;;;;;;5044601;28;20115;-76
2022/06/02 00:41:43;;;;;;;15.43;13.70;;;8.20;99.90;;;;;;5044997;28;20032;-75
2022/06/02 00:44:39;;;;;;;14.63;12.88;;;8.20;99.90;;;;;;5046888;28;20048;-75
2022/06/02 00:47:29;;;;;;;16.45;13.65;;;8.10;99.90;;;;;;5047935;28;20044;-76
2022/06/02 00:50:06;;;;;;;17.48;15.57;;;8.10;99.90;;;;;;5047920;28;20067;-76
2022/06/02 00:52:47;;;;;;;15.18;13.70;;;8.00;99.90;;;;;;5033529;28;20044;-76
2022/06/02 00:58:38;;;;;;;15.35;13.95;;;8.00;99.90;;;;;;5050263;28;20109;-76
2022/06/02 01:01:11;;;;;;;14.73;13.32;;;8.00;99.90;;;;;;5042189;28;20035;-75
2022/06/02 01:03:47;;;;;;;14.98;13.48;;;7.90;99.90;;;;;;5045302;28;20048;-75
2022/06/02 01:06:19;;;;;;;14.75;13.32;;;8.00;99.90;;;;;;5037979;28;20056;-75
2022/06/02 01:09:09;;;;;;;16.80;13.52;;;7.90;99.90;;;;;;5029301;28;20045;-75
2022/06/02 01:11:48;;;;;;;16.42;14.68;;;7.90;99.90;;;;;;5046621;28;20055;-76
2022/06/02 01:14:42;;;;;;;16.50;14.90;;;7.80;99.90;;;;;;5050585;28;20044;-75
2022/06/02 01:17:35;;;;;;;15.32;13.75;;;7.80;99.90;;;;;;5028829;28;20111;-75
2022/06/02 01:20:29;;;;;;;13.95;12.38;;;7.70;99.90;;;;;;5045894;28;20444;-76
2022/06/02 01:23:42;;;;;;;15.20;13.67;;;7.70;99.90;;;;;;5048214;28;20550;-76
2022/06/02 01:26:22;;;;;;;14.25;12.85;;;7.70;99.90;;;;;;5050129;28;20504;-75
2022/06/02 01:28:51;;;;;;;16.77;14.93;;;7.60;99.90;;;;;;5044795;28;20053;-76
2022/06/02 01:31:54;;;;;;;16.45;14.68;;;7.60;99.90;;;;;;5045348;28;20044;-76
2022/06/02 01:34:51;;;;;;;17.67;15.88;;;7.60;99.90;;;;;;5029515;28;20047;-76
2022/06/02 01:37:42;;;;;;;18.83;16.30;;;7.60;99.90;;;;;;5028051;28;20041;-76
2022/06/02 01:40:33;;;;;;;18.77;16.77;;;7.60;99.90;;;;;;5044552;28;20045;-75
2022/06/02 01:43:17;;;;;;;19.35;17.20;;;7.60;99.90;;;;;;5041089;28;20128;-75
2022/06/02 01:46:05;;;;;;;17.88;15.88;;;7.60;99.90;;;;;;5050414;28;20342;-75
2022/06/02 01:49:27;;;;;;;18.35;15.90;;;7.50;99.90;;;;;;5037420;28;20052;-75
2022/06/02 01:52:10;;;;;;;19.08;17.05;;;7.50;99.90;;;;;;5025066;28;20471;-75
2022/06/02 01:54:46;;;;;;;18.23;16.35;;;7.50;99.90;;;;;;5032433;28;20037;-76
2022/06/02 01:57:28;;;;;;;17.98;16.15;;;7.50;99.90;;;;;;5036604;28;20060;-76
2022/06/02 02:00:01;;;;;;;17.67;15.77;;;7.50;99.90;;;;;;5045911;28;20041;-76
2022/06/02 02:02:52;;;;;;;18.45;16.55;;;7.50;99.90;;;;;;5024891;28;20053;-76
2022/06/02 02:05:30;;;;;;;16.90;15.20;;;7.40;99.90;;;;;;5031823;28;20037;-76
2022/06/02 02:08:19;;;;;;;18.45;16.10;;;7.40;99.90;;;;;;5035058;28;20054;-76
2022/06/02 02:11:13;;;;;;;19.48;16.65;;;7.30;99.90;;;;;;5042798;28;20048;-76
2022/06/02 02:13:55;;;;;;;18.93;16.93;;;7.30;99.90;;;;;;5043057;28;20053;-76
2022/06/02 02:16:36;;;;;;;18.65;16.67;;;7.30;99.90;;;;;;5040124;28;20037;-75
2022/06/02 02:19:29;;;;;;;18.58;16.58;;;7.30;99.90;;;;;;5035555;28;20472;-75
2022/06/02 02:22:03;;;;;;;17.25;15.63;;;7.30;99.90;;;;;;5047332;28;20545;-76
2022/06/02 02:24:32;;;;;;;19.23;17.17;;;7.20;99.90;;;;;;5023371;28;20042;-76
2022/06/02 02:27:14;;;;;;;19.20;17.17;;;7.20;99.90;;;;;;5028294;28;20509;-76
2022/06/02 02:30:07;;;;;;;17.58;15.63;;;7.20;99.90;;;;;;5040985;28;20045;-76
2022/06/02 02:33:00;;;;;;;18.88;16.80;;;7.20;99.90;;;;;;5037366;28;20120;-76
2022/06/02 02:35:54;;;;;;;17.23;15.30;;;7.20;99.90;;;;;;5043828;28;20044;-76
2022/06/02 02:38:33;;;;;;;17.13;15.40;;;7.20;99.90;;;;;;5031603;28;20037;-76
2022/06/02 02:41:06;;;;;;;19.90;17.13;;;7.10;99.90;;;;;;5043079;28;20046;-76
2022/06/02 02:43:41;;;;;;;18.52;16.60;;;7.10;99.90;;;;;;5039924;28;20257;-76
2022/06/02 02:46:18;;;;;;;18.00;16.10;;;7.00;99.90;;;;;;5042498;28;20136;-76
2022/06/02 02:49:24;;;;;;;17.42;15.63;;;7.10;99.90;;;;;;5045285;28;20124;-76
2022/06/02 02:52:04;;;;;;;;;;;7.00;99.90;;;;;;5047725;28;20041;-76
2022/06/02 02:54:40;;;;;;;15.48;13.98;;;7.00;99.90;;;;;;5047154;28;19959;-76
2022/06/02 02:57:09;;;;;;;15.73;14.07;;;7.00;99.90;;;;;;5044347;28;20045;-76
2022/06/02 02:59:49;;;;;;;16.50;14.90;;;6.90;99.90;;;;;;5026694;28;20029;-76
2022/06/02 03:02:27;;;;;;;15.82;14.32;;;7.00;99.90;;;;;;5030226;28;20097;-76
2022/06/02 03:05:00;;;;;;;15.40;13.90;;;6.90;99.90;;;;;;5045158;28;20111;-77
2022/06/02 03:07:29;;;;;;;16.88;15.15;;;6.90;99.90;;;;;;5030837;28;20046;-76
2022/06/02 03:10:17;;;;;;;17.10;15.40;;;6.80;99.90;;;;;;5045086;28;20041;-76
2022/06/02 03:13:24;;;;;;;16.40;14.75;;;6.80;99.90;;;;;;5034770;28;20049;-77
2022/06/02 03:16:04;;;;;;;17.60;15.75;;;6.80;99.90;;;;;;5046015;28;20061;-76
2022/06/02 03:18:41;;;;;;;17.58;15.88;;;6.80;99.90;;;;;;5037557;28;20481;-76
2022/06/02 03:21:36;;;;;;;17.52;15.80;;;6.70;99.90;;;;;;5041974;28;20452;-77
2022/06/02 03:24:39;;;;;;;17.77;15.85;;;6.80;99.90;;;;;;5045970;28;20036;-77
2022/06/02 03:27:46;;;;;;;18.05;16.23;;;6.70;99.90;;;;;;5049197;28;20079;-76
2022/06/02 03:30:27;;;;;;;17.02;15.32;;;6.70;99.90;;;;;;5014395;28;20054;-76
2022/06/02 03:33:21;;;;;;;18.05;16.15;;;6.70;99.90;;;;;;5048713;28;20427;-76
2022/06/02 03:36:03;;;;;;;18.42;16.42;;;6.70;99.90;;;;;;5051285;28;20041;-75
2022/06/02 03:39:06;;;;;;;18.80;16.95;;;6.70;99.90;;;;;;5046223;28;20061;-75
2022/06/02 03:42:01;;;;;;;19.05;16.15;;;6.70;99.90;;;;;;5037810;28;20124;-76
2022/06/02 03:44:27;;;;;;;16.58;14.98;;;6.70;99.90;;;;;;5028088;28;20041;-76
2022/06/02 03:47:09;;;;;;;17.00;15.20;;;6.70;99.90;;;;;;5045534;28;20523;-76
2022/06/02 03:49:41;;;;;;;16.70;15.00;;;6.70;99.90;;;;;;5052064;28;20044;-77
2022/06/02 03:52:18;;;;;;;15.05;13.65;;;6.70;99.90;;;;;;5022932;28;20045;-77
2022/06/02 03:55:26;;;;;;;17.52;15.73;;;6.70;99.90;;;;;;5045103;28;20064;-77
2022/06/02 03:58:00;;;;;;;16.85;15.15;;;6.70;99.90;;;;;;5047319;28;20181;-76
2022/06/02 04:00:28;;;;;;;;;;;6.70;99.90;;;;;;5050311;28;20485;-77
2022/06/02 04:02:59;;;;;;;16.02;14.13;;;6.70;99.90;;;;;;5051834;28;20875;-76
2022/06/02 04:06:07;;;;;;;16.25;14.50;;;6.70;99.90;;;;;;5042393;28;20033;-76
2022/06/02 04:08:34;;;;;;;18.23;16.17;;;6.70;99.90;;;;;;5036146;28;20060;-76
2022/06/02 04:11:25;;;;;;;23.00;17.95;;;6.80;99.90;;;;;;5037633;28;20045;-76
2022/06/02 04:14:05;;;;;;;22.98;18.90;;;6.80;99.90;;;;;;5044302;28;20072;-77
2022/06/02 04:16:48;;;;;;;25.10;19.42;;;6.90;99.90;;;;;;5041443;28;20137;-77
2022/06/02 04:22:32;;;;;;;18.85;16.88;;;7.00;99.90;;;;;;5047558;28;20051;-76
2022/06/02 04:25:19;;;;;;;20.10;17.98;;;7.20;99.90;;;;;;5048184;28;20052;-76
2022/06/02 04:28:17;;;;;;;20.00;17.73;;;7.30;99.90;;;;;;5044137;28;20049;-77
2022/06/02 04:31:20;;;;;;;20.20;17.02;;;7.40;99.90;;;;;;5043146;28;20044;-77
2022/06/02 04:33:56;;;;;;;19.95;17.83;;;7.50;99.90;;;;;;5049529;28;20400;-77
2022/06/02 04:36:48;;;;;;;101.20;87.57;;;7.70;99.90;;;;;;5042372;28;20048;-77
2022/06/02 04:39:43;;;;;;;25.73;22.92;;;7.80;99.90;;;;;;5038549;28;20045;-76
2022/06/02 04:42:08;;;;;;;23.73;20.13;;;7.90;99.90;;;;;;5045782;28;20102;-76
2022/06/02 04:44:55;;;;;;;22.90;19.63;;;8.00;99.90;;;;;;5046347;28;20480;-75
2022/06/02 04:47:26;;;;;;;22.67;19.30;;;8.20;99.90;;;;;;5045190;28;20056;-75
2022/06/02 04:50:23;;;;;;;22.73;20.17;;;8.30;99.90;;;;;;5041329;28;20042;-75
2022/06/02 04:52:53;;;;;;;21.05;18.80;;;8.50;99.90;;;;;;5047667;28;20053;-75
2022/06/02 04:55:37;;;;;;;26.05;20.20;;;8.70;99.90;;;;;;5060406;28;20128;-75
2022/06/02 04:58:17;;;;;;;21.15;18.42;;;8.90;99.90;;;;;;5035836;28;20045;-74
2022/06/02 05:01:03;;;;;;;23.85;19.58;;;9.10;99.90;;;;;;5048069;28;20051;-73
2022/06/02 05:03:34;;;;;;;20.15;18.05;;;9.30;99.90;;;;;;5045855;28;20052;-73
2022/06/02 05:06:14;;;;;;;19.75;17.77;;;9.60;99.90;;;;;;5047352;28;20049;-73
2022/06/02 05:08:59;;;;;;;20.23;17.98;;;9.90;99.90;;;;;;5032045;28;20115;-73
2022/06/02 05:11:50;;;;;;;16.65;14.70;;;10.40;99.90;;;;;;5044667;28;20040;-75
2022/06/02 05:14:39;;;;;;;15.25;13.85;;;11.00;99.90;;;;;;5046027;28;20380;-75
2022/06/02 05:17:26;;;;;;;14.77;13.48;;;11.40;99.90;;;;;;5049109;28;20045;-75
2022/06/02 05:20:19;;;;;;;14.68;13.38;;;11.30;99.90;;;;;;5044707;28;20424;-74
2022/06/02 05:23:36;;;;;;;16.13;14.52;;;11.20;99.90;;;;;;5050600;28;20131;-75
2022/06/02 05:26:16;;;;;;;14.25;12.30;;;11.10;99.90;;;;;;4947550;28;20047;-75
2022/06/02 05:29:18;;;;;;;13.93;12.52;;;11.10;99.90;;;;;;4980044;28;20439;-75
2022/06/02 05:32:13;;;;;;;13.73;12.40;;;11.10;99.90;;;;;;5019124;28;20049;-75
2022/06/02 05:35:09;;;;;;;14.00;12.73;;;11.10;99.90;;;;;;5043312;28;20528;-75
2022/06/02 05:38:00;;;;;;;13.55;12.23;;;11.10;99.90;;;;;;5045206;28;20046;-75
2022/06/02 05:40:58;;;;;;;13.05;11.75;;;11.20;99.90;;;;;;5032467;28;20037;-75
2022/06/02 05:43:32;;;;;;;11.95;10.75;;;11.30;99.90;;;;;;5038933;28;20048;-75
2022/06/02 05:46:17;;;;;;;;;;;11.40;99.90;;;;;;5037441;28;20131;-75
2022/06/02 05:48:42;;;;;;;11.63;9.57;;;11.40;99.90;;;;;;5036847;28;19920;-76
2022/06/02 05:51:39;;;;;;;13.77;10.88;;;11.50;99.90;;;;;;5047825;28;20293;-76
2022/06/02 05:54:38;;;;;;;12.30;11.02;;;11.70;99.90;;;;;;5044242;28;20041;-75
2022/06/02 05:57:17;;;;;;;11.45;10.32;;;11.70;99.90;;;;;;5047938;28;20197;-75
2022/06/02 06:00:25;;;;;;;11.85;10.75;;;11.80;99.90;;;;;;5044853;28;20091;-75
2022/06/02 06:03:12;;;;;;;10.27;9.23;;;11.90;99.90;;;;;;5017699;28;20128;-75
2022/06/02 06:06:02;;;;;;;9.75;8.75;;;12.00;99.90;;;;;;5039861;28;20566;-76
2022/06/02 06:08:40;;;;;;;9.15;8.25;;;12.20;99.90;;;;;;5037609;28;20060;-76
2022/06/02 06:11:35;;;;;;;10.18;8.82;;;12.30;99.90;;;;;;5042018;28;20053;-76
2022/06/02 06:14:33;;;;;;;10.15;9.00;;;12.40;99.90;;;;;;5043184;28;20036;-73
2022/06/02 06:17:08;;;;;;;9.15;8.20;;;12.50;99.90;;;;;;5043580;28;20055;-73
2022/06/02 06:19:52;;;;;;;9.57;8.57;;;12.50;99.90;;;;;;5046471;28;20045;-73
2022/06/02 06:22:32;;;;;;;8.40;7.60;;;12.70;99.90;;;;;;5027645;28;20496;-73
2022/06/02 06:25:10;;;;;;;8.15;7.45;;;12.60;99.90;;;;;;5039932;28;20044;-73
2022/06/02 06:28:04;;;;;;;7.30;6.60;;;12.70;99.90;;;;;;5048076;28;20040;-73
2022/06/02 06:31:01;;;;;;;6.93;6.22;;;12.80;99.90;;;;;;5040413;28;21433;-74
2022/06/02 06:33:48;;;;;;;6.45;5.80;;;12.90;99.90;;;;;;5039775;28;20038;-74
2022/06/02 06:36:52;;;;;;;6.78;6.18;;;13.00;99.90;;;;;;5041245;28;20497;-73
2022/06/02 06:39:39;;;;;;;6.38;5.65;;;13.10;99.90;;;;;;5041748;28;20049;-74
2022/06/02 06:42:35;;;;;;;7.22;4.70;;;13.20;99.90;;;;;;5027215;28;20029;-74
2022/06/02 06:45:29;;;;;;;4.97;3.97;;;13.40;99.90;;;;;;5034780;28;20084;-74
2022/06/02 06:48:30;;;;;;;6.55;4.03;;;13.50;99.90;;;;;;5049063;28;20504;-75
2022/06/02 06:51:18;;;;;;;6.00;4.57;;;13.50;99.90;;;;;;5016462;28;20067;-75
2022/06/02 06:54:12;;;;;;;4.32;3.33;;;13.50;99.90;;;;;;5021373;28;20045;-74
2022/06/02 06:56:48;;;;;;;4.13;3.00;;;13.60;99.90;;;;;;5049541;28;20045;-76
2022/06/02 06:59:22;;;;;;;3.67;2.50;;;13.60;99.90;;;;;;5052272;28;20048;-75
2022/06/02 07:02:18;;;;;;;4.60;2.55;;;13.70;99.90;;;;;;5063219;28;20045;-75
2022/06/02 07:04:57;;;;;;;2.83;2.30;;;13.70;99.90;;;;;;5042870;28;20499;-75
2022/06/02 07:07:53;;;;;;;3.95;2.42;;;13.80;99.90;;;;;;5043620;28;20074;-74
2022/06/02 07:10:41;;;;;;;3.20;2.38;;;14.00;99.90;;;;;;5026074;28;20061;-68
2022/06/02 07:13:18;;;;;;;3.70;1.88;;;14.10;99.90;;;;;;5043761;28;20063;-69
2022/06/02 07:16:08;;;;;;;5.47;2.22;;;14.20;99.90;;;;;;5041043;28;20045;-69
2022/06/02 07:18:54;;;;;;;3.90;2.28;;;14.30;99.90;;;;;;5039750;28;20040;-69
2022/06/02 07:21:35;;;;;;;10.35;7.25;;;14.30;99.90;;;;;;5032548;28;20040;-68
2022/06/02 07:24:27;;;;;;;2.85;1.55;;;14.40;99.90;;;;;;5033945;28;20043;-70
2022/06/02 07:27:05;;;;;;;4.82;1.80;;;14.40;99.90;;;;;;5039272;28;20102;-69
2022/06/02 07:29:42;;;;;;;2.28;1.10;;;14.40;99.90;;;;;;5037558;28;20496;-68
2022/06/02 07:32:17;;;;;;;3.00;1.10;;;14.60;99.90;;;;;;5043329;28;20445;-69
2022/06/02 07:35:04;;;;;;;2.25;1.25;;;14.70;99.90;;;;;;5048939;28;20045;-70
2022/06/02 07:37:58;;;;;;;2.33;1.30;;;14.90;99.90;;;;;;5047514;28;20115;-70
2022/06/02 07:40:45;;;;;;;3.00;1.45;;;15.10;99.90;;;;;;5045965;28;20099;-70
2022/06/02 07:43:20;;;;;;;4.15;2.13;;;15.30;99.90;;;;;;5041262;28;20083;-70
2022/06/02 07:45:55;;;;;;;1.67;1.42;;;15.50;99.90;;;;;;5044147;28;20048;-71
2022/06/02 07:48:26;;;;;;;4.25;1.50;;;15.70;99.90;;;;;;5039456;28;20045;-71
2022/06/02 07:51:33;;;;;;;3.40;1.10;;;15.70;99.90;;;;;;5044612;28;20040;-71
2022/06/02 07:54:13;;;;;;;2.95;1.02;;;15.60;99.90;;;;;;5030032;28;20048;-71
2022/06/02 07:56:54;;;;;;;1.55;1.00;;;15.50;99.90;;;;;;5049376;28;20049;-71
2022/06/02 07:59:48;;;;;;;2.35;0.93;;;15.60;99.90;;;;;;5040862;28;20041;-70
2022/06/02 08:02:52;;;;;;;3.25;1.27;;;15.80;99.90;;;;;;5047646;28;20052;-69
2022/06/02 08:05:22;;;;;;;1.40;0.90;;;15.90;99.90;;;;;;5056419;28;20046;-80
2022/06/02 08:07:57;;;;;;;2.03;1.08;;;16.00;99.90;;;;;;5041281;28;20040;-80
2022/06/02 08:10:56;;;;;;;1.55;0.95;;;16.20;99.90;;;;;;5050452;28;20053;-80
2022/06/02 08:13:24;;;;;;;2.55;0.90;;;16.50;99.90;;;;;;5026700;28;20118;-80
2022/06/02 08:15:57;;;;;;;1.42;0.82;;;17.10;99.90;;;;;;5047088;28;20041;-80
2022/06/02 08:18:38;;;;;;;4.10;1.17;;;17.80;99.90;;;;;;5052489;28;20079;-80
2022/06/02 08:21:30;;;;;;;1.67;0.90;;;18.60;99.90;;;;;;5050756;28;20048;-80
2022/06/02 08:24:07;;;;;;;3.40;1.05;;;19.10;99.50;;;;;;5044015;28;20049;-80
2022/06/02 08:26:41;;;;;;;2.08;0.80;;;18.90;99.00;;;;;;5042979;28;20036;-80
2022/06/02 08:29:33;;;;;;;2.00;1.00;;;18.80;97.10;;;;;;5044441;28;20083;-80
2022/06/02 08:32:31;;;;;;;1.63;0.93;;;18.80;91.50;;;;;;5031162;28;20059;-80
2022/06/02 08:35:10;;;;;;;4.07;1.20;;;19.30;93.90;;;;;;5030784;28;20037;-80
2022/06/02 08:37:44;;;;;;;3.47;1.20;;;19.50;92.40;;;;;;5052328;28;20152;-80
2022/06/02 08:40:28;;;;;;;3.10;1.30;;;19.30;92.90;;;;;;5042116;28;20049;-81
2022/06/02 08:43:31;;;;;;;1.23;0.63;;;19.30;93.00;;;;;;5068910;28;20037;-81
2022/06/02 08:46:28;;;;;;;2.53;0.98;;;19.70;91.10;;;;;;5050807;28;20083;-81
2022/06/02 08:49:02;;;;;;;3.95;1.08;;;20.00;85.20;;;;;;5053383;28;20153;-81
2022/06/02 08:51:37;;;;;;;1.42;0.70;;;20.30;90.70;;;;;;5045314;28;20448;-81
2022/06/02 08:54:58;;;;;;;1.02;0.55;;;20.60;85.30;;;;;;5053941;28;20047;-80
2022/06/02 08:57:29;;;;;;;1.45;0.47;;;20.40;76.10;;;;;;4979676;28;20049;-81
2022/06/02 09:00:09;;;;;;;1.63;0.47;;;19.60;82.00;;;;;;5028195;28;20056;-80
2022/06/02 09:02:57;;;;;;;1.92;0.55;;;19.10;81.30;;;;;;5058488;28;20040;-80
2022/06/02 09:06:01;;;;;;;1.35;0.50;;;19.40;81.50;;;;;;5041110;28;20103;-81
2022/06/02 09:08:44;;;;;;;1.60;1.00;;;19.80;84.70;;;;;;5059228;28;20046;-81
2022/06/02 09:11:47;;;;;;;2.15;0.70;;;20.30;85.00;;;;;;5055076;28;20040;-81
2022/06/02 09:14:28;;;;;;;2.83;0.80;;;20.20;76.00;;;;;;5043709;28;20146;-80
2022/06/02 09:17:25;;;;;;;2.17;0.60;;;19.70;81.00;;;;;;5045975;28;20048;-72
2022/06/02 09:20:03;;;;;;;2.90;0.63;;;19.50;80.90;;;;;;5040974;28;20032;-71
2022/06/02 09:22:49;;;;;;;2.00;0.60;;;19.40;83.20;;;;;;5059371;28;20041;-71
2022/06/02 09:25:33;;;;;;;1.83;0.60;;;19.20;80.80;;;;;;5056532;28;20051;-71
2022/06/02 09:28:25;;;;;;;2.03;0.68;;;19.20;81.70;;;;;;5046277;28;20818;-72
2022/06/02 09:31:06;;;;;;;1.60;0.40;;;19.60;81.10;;;;;;5043541;28;20125;-71
2022/06/02 09:34:00;;;;;;;1.55;0.50;;;20.00;80.90;;;;;;5045664;28;20056;-71
2022/06/02 09:37:09;;;;;;;2.85;2.03;;;20.30;79.60;;;;;;5053964;28;20106;-71
2022/06/02 09:40:00;;;;;;;2.00;0.50;;;20.60;69.90;;;;;;5056148;28;20087;-71
2022/06/02 09:42:44;;;;;;;2.42;0.50;;;20.60;71.90;;;;;;5038541;28;20037;-71
2022/06/02 09:45:09;;;;;;;;;;;20.40;74.10;;;;;;5040098;28;20049;-72
2022/06/02 09:47:53;;;;;;;1.33;0.40;;;20.50;73.90;;;;;;5035729;28;19940;-70
2022/06/02 09:50:46;;;;;;;1.77;0.88;;;20.70;76.70;;;;;;5045142;28;20079;-70
2022/06/02 09:53:15;;;;;;;1.35;0.60;;;21.20;74.10;;;;;;5020778;28;20037;-74
2022/06/02 09:56:08;;;;;;;1.35;0.47;;;21.60;71.30;;;;;;5031681;28;20052;-78
2022/06/02 09:58:44;;;;;;;2.85;0.50;;;21.40;67.50;;;;;;5044699;28;20084;-76
2022/06/02 10:01:34;;;;;;;1.60;0.60;;;20.90;69.90;;;;;;5040601;28;20143;-73
2022/06/02 10:04:28;;;;;;;1.98;0.43;;;20.40;72.50;;;;;;5029622;28;20135;-68
2022/06/02 10:07:18;;;;;;;1.88;0.50;;;20.30;73.60;;;;;;5035553;28;20033;-66
2022/06/02 10:10:17;;;;;;;2.33;0.40;;;20.40;71.70;;;;;;5037881;28;20045;-69
2022/06/02 10:13:20;;;;;;;4.43;0.50;;;20.50;71.40;;;;;;5035221;28;20037;-70
2022/06/02 10:16:03;;;;;;;1.90;0.50;;;20.90;71.20;;;;;;5041155;28;20165;-71
2022/06/02 10:18:54;;;;;;;1.27;0.50;;;20.90;69.40;;;;;;5040313;28;20087;-71
2022/06/02 10:21:54;;;;;;;1.40;0.52;;;21.00;70.00;;;;;;5033776;28;20085;-69
2022/06/02 10:25:02;;;;;;;1.40;0.60;;;21.30;70.90;;;;;;5034243;28;20362;-71
2022/06/02 10:27:53;;;;;;;1.80;0.52;;;21.70;68.10;;;;;;5042927;28;20052;-71
2022/06/02 10:30:48;;;;;;;2.17;0.60;;;22.10;66.00;;;;;;5039991;28;20394;-71
2022/06/02 10:33:42;;;;;;;1.08;0.40;;;22.00;63.00;;;;;;5036365;28;20045;-71
2022/06/02 10:36:30;;;;;;;1.10;0.32;;;21.70;63.80;;;;;;5050058;28;20037;-71
2022/06/02 10:39:15;;;;;;;1.27;0.30;;;21.80;65.80;;;;;;5036814;28;20049;-71
2022/06/02 10:42:08;;;;;;;1.20;0.40;;;22.00;62.20;;;;;;5040789;28;20064;-71
2022/06/02 10:45:06;;;;;;;1.08;0.30;;;22.10;63.60;;;;;;5042448;28;20052;-71
2022/06/02 10:47:59;;;;;;;2.42;0.52;;;22.50;64.60;;;;;;5042200;28;20045;-71
2022/06/02 10:51:05;;;;;;;1.33;0.47;;;22.60;59.30;;;;;;5039585;28;20045;-71
2022/06/02 10:54:08;;;;;;;1.55;0.63;;;22.90;57.60;;;;;;5059018;28;20504;-71
2022/06/02 10:56:40;;;;;;;1.98;0.60;;;23.20;61.30;;;;;;5039404;28;20056;-71
2022/06/02 10:59:39;;;;;;;2.10;0.70;;;23.10;62.60;;;;;;5055533;28;20037;-71
2022/06/02 11:02:36;;;;;;;1.05;0.60;;;23.10;62.30;;;;;;5044996;28;20053;-71
2022/06/02 11:05:23;;;;;;;2.08;0.50;;;23.10;60.80;;;;;;5043903;28;20116;-71
2022/06/02 11:08:27;;;;;;;0.95;0.30;;;23.30;61.80;;;;;;5044042;28;20053;-71
2022/06/02 11:11:28;;;;;;;1.13;0.40;;;23.80;55.50;;;;;;5053021;28;20160;-71
2022/06/02 11:14:12;;;;;;;1.70;0.40;;;23.30;55.70;;;;;;5007192;28;20054;-71
2022/06/02 11:17:34;;;;;;;0.80;0.47;;;22.60;55.10;;;;;;5039938;28;20207;-70
2022/06/02 11:20:53;;;;;;;8.55;0.70;;;22.00;59.00;;;;;;4964611;28;20257;-70
2022/06/02 11:23:45;;;;;;;1.17;0.30;;;21.50;60.60;;;;;;4890545;29;20116;-71
2022/06/02 11:26:23;;;;;;;2.58;0.50;;;21.40;64.10;;;;;;5044443;28;20110;-70
2022/06/02 11:29:07;;;;;;;2.45;0.60;;;21.60;63.00;;;;;;5049250;28;20135;-70
2022/06/02 11:31:42;;;;;;;;;;;21.20;61.70;;;;;;5065058;28;20067;-70
2022/06/02 11:34:16;;;;;;;;;;;21.10;65.80;;;;;;5067226;28;19916;-71
2022/06/02 11:37:23;;;;;;;10.75;4.60;;;21.30;63.50;;;;;;5045409;28;20378;-71
2022/06/02 11:40:04;;;;;;;3.33;1.10;;;21.70;62.90;;;;;;5028600;28;20451;-71
2022/06/02 11:42:38;;;;;;;2.53;0.73;;;21.40;59.30;;;;;;5066235;28;20485;-70
2022/06/02 11:45:36;;;;;;;2.30;0.45;;;21.00;60.90;;;;;;5050486;28;20085;-70
2022/06/02 11:48:40;;;;;;;3.30;0.60;;;20.90;63.10;;;;;;5049436;28;20123;-77
2022/06/02 11:51:49;;;;;;;1.17;0.55;;;21.40;62.40;;;;;;5045738;28;20057;-77
2022/06/02 11:54:21;;;;;;;2.92;0.60;;;22.00;59.50;;;;;;5045424;28;20053;-76
2022/06/02 11:57:06;;;;;;;2.65;0.50;;;22.40;59.30;;;;;;5045547;28;20140;-77
2022/06/02 11:59:37;;;;;;;1.63;0.50;;;22.90;59.10;;;;;;5037358;28;20033;-76
2022/06/02 12:02:25;;;;;;;2.08;0.40;;;23.50;61.40;;;;;;5048492;28;20451;-77
2022/06/02 12:05:13;;;;;;;2.03;0.40;;;24.10;56.80;;;;;;5042265;28;20618;-77
2022/06/02 12:07:57;;;;;;;2.58;0.73;;;24.20;58.80;;;;;;5020005;28;20041;-78
2022/06/02 12:10:57;;;;;;;1.77;0.50;;;24.60;57.80;;;;;;5044302;28;20535;-77
2022/06/02 12:13:39;;;;;;;0.82;0.30;;;24.80;55.90;;;;;;5047653;28;20489;-77
2022/06/02 12:16:30;;;;;;;1.17;0.30;;;25.20;57.20;;;;;;5036193;28;20098;-70
2022/06/02 12:19:14;;;;;;;1.17;0.25;;;25.30;51.50;;;;;;5045774;28;20067;-70
2022/06/02 12:21:59;;;;;;;;;;;25.10;52.30;;;;;;5045832;28;20036;-70
2022/06/02 12:24:40;;;;;;;1.38;0.40;;;24.90;51.80;;;;;;5050452;28;19967;-71
2022/06/02 12:27:40;;;;;;;1.02;0.40;;;24.60;52.70;;;;;;5045253;28;20444;-71
2022/06/02 12:30:41;;;;;;;0.60;0.30;;;24.60;52.90;;;;;;5050190;28;20058;-70
2022/06/02 12:33:54;;;;;;;0.82;0.30;;;24.60;48.60;;;;;;5023480;28;20060;-70
2022/06/02 12:36:41;;;;;;;0.90;0.20;;;24.40;51.10;;;;;;5066188;28;20032;-69
2022/06/02 12:39:10;;;;;;;1.35;0.30;;;24.10;47.20;;;;;;5062813;28;20335;-70
2022/06/02 12:42:09;;;;;;;2.38;0.30;;;24.00;49.40;;;;;;5068671;28;20047;-70
2022/06/02 12:44:47;;;;;;;0.52;0.20;;;24.30;50.60;;;;;;5065277;28;20039;-70
2022/06/02 12:47:31;;;;;;;2.20;0.40;;;24.30;50.80;;;;;;5044826;28;20098;-70
2022/06/02 12:50:15;;;;;;;1.50;0.50;;;24.20;51.60;;;;;;5060565;28;20041;-70
2022/06/02 12:53:00;;;;;;;1.08;0.40;;;24.10;52.20;;;;;;5055596;28;20052;-69
2022/06/02 12:55:50;;;;;;;0.95;0.47;;;24.20;53.70;;;;;;5045148;28;20049;-70
2022/06/02 12:58:53;;;;;;;1.33;0.50;;;24.20;53.90;;;;;;5055342;28;20037;-70
2022/06/02 13:01:31;;;;;;;1.33;0.40;;;24.20;51.20;;;;;;5044615;28;20488;-69
2022/06/02 13:04:31;;;;;;;0.95;0.40;;;24.00;54.00;;;;;;5045699;28;20120;-70
2022/06/02 13:07:19;;;;;;;1.88;0.70;;;24.20;51.80;;;;;;5044219;28;20052;-69
2022/06/02 13:10:09;;;;;;;1.20;0.40;;;24.10;50.20;;;;;;5065335;28;20048;-70
2022/06/02 13:13:03;;;;;;;1.02;0.30;;;24.20;52.30;;;;;;5051600;28;20049;-69
2022/06/02 13:15:54;;;;;;;1.05;0.30;;;24.20;51.50;;;;;;5058081;28;20465;-68
2022/06/02 13:18:37;;;;;;;1.08;0.30;;;24.20;54.60;;;;;;5054555;28;20083;-70
2022/06/02 13:21:35;;;;;;;1.38;0.20;;;24.60;52.70;;;;;;5046367;28;20033;-68
2022/06/02 13:24:19;;;;;;;2.10;0.35;;;24.70;50.70;;;;;;5065170;28;20087;-71
2022/06/02 13:27:03;;;;;;;;;;;24.70;51.90;;;;;;5042384;28;20106;-71
2022/06/02 13:29:54;;;;;;;2.15;0.40;;;24.40;52.70;;;;;;5064491;28;19924;-71
2022/06/02 13:32:31;;;;;;;1.58;0.40;;;24.50;52.50;;;;;;5050374;28;20045;-70
2022/06/02 13:35:29;;;;;;;1.00;0.50;;;24.70;55.60;;;;;;5045848;28;20047;-70
2022/06/02 13:38:14;;;;;;;1.60;0.50;;;24.80;53.30;;;;;;5062567;28;20047;-70
2022/06/02 13:41:10;;;;;;;0.30;0.20;;;24.90;53.70;;;;;;5026926;28;20287;-70
2022/06/02 13:43:47;;;;;;;0.98;0.30;;;24.90;51.50;;;;;;5057354;28;20050;-69
2022/06/02 13:46:30;;;;;;;1.95;0.30;;;24.80;52.00;;;;;;5062365;28;20133;-70
2022/06/02 13:49:29;;;;;;;2.05;0.30;;;24.70;50.60;;;;;;5064185;28;20116;-70
2022/06/02 13:52:42;;;;;;;1.27;0.40;;;24.60;50.20;;;;;;5062931;28;20443;-70
2022/06/02 13:58:41;;;;;;;2.38;0.85;;;24.40;50.30;;;;;;5061710;28;20424;-70
2022/06/02 14:01:28;;;;;;;0.73;0.30;;;24.20;51.40;;;;;;5059628;28;20183;-69
2022/06/02 14:04:18;;;;;;;1.52;0.30;;;23.90;51.00;;;;;;5038654;28;20472;-69
2022/06/02 14:06:56;;;;;;;1.38;0.40;;;23.80;53.40;;;;;;5035209;28;20109;-69
2022/06/02 14:09:46;;;;;;;1.13;0.30;;;23.70;53.00;;;;;;5059872;28;20067;-69
2022/06/02 14:12:20;;;;;;;0.85;0.30;;;23.60;52.00;;;;;;5041714;28;20067;-69
2022/06/02 14:15:14;;;;;;;1.30;0.52;;;23.50;53.00;;;;;;5056562;28;20033;-69
2022/06/02 14:18:01;;;;;;;1.40;0.57;;;23.20;52.20;;;;;;5062813;28;20077;-70
2022/06/02 14:20:58;;;;;;;2.55;0.60;;;22.80;54.60;;;;;;5044564;28;20496;-69
2022/06/02 14:23:42;;;;;;;1.73;0.55;;;22.50;55.50;;;;;;5060929;28;20033;-69
2022/06/02 14:26:16;;;;;;;1.25;0.50;;;22.10;55.60;;;;;;5039096;28;20060;-68
2022/06/02 14:29:03;;;;;;;3.55;0.80;;;21.80;56.70;;;;;;5040770;28;20124;-69
2022/06/02 14:31:47;;;;;;;2.42;0.60;;;21.50;55.80;;;;;;5042260;28;20075;-70
2022/06/02 14:34:32;;;;;;;0.85;0.40;;;21.20;55.20;;;;;;5046091;28;20098;-70